Caistor, United Kingdom
Current Conditions -  °F | °C
As of 1:50 AM on Wednesday 26 Nov 2014 (Local Time) from EGNJ Reporting Station
Few Clouds Few Clouds  
Wind Chill: 50°   Ceiling: Unl
Heat Index: 50°   Visibility: 6mi
Dew Point: 46°   Wind: 9mph
Humidity: 87%   Direction: 70°ENE
Pressure: 30.03"   Gusts: NA
Location:  53.5°N, 0.32°W
Report Text: EGNJ 260150Z AUTO 07008KT 9999 FEW018/// 10/08 Q1017
Loading
Personal Weather Stations






























Interactive Weather Map New forecast layout! Learn more

10-Day Weather Forecast

Advertisements
Track Severe Weather on mobile